Terminal Aerodrome Forecast
Issued by NWS Albany, NY

Current Version | Previous Version | Text Only | Print | Product List | Glossary On
Versions: 1 2 3 4 5 6 7 8 9 10 11 12 13 14 15 16 17 18 19 20 21 22
950
FTUS41 KALY 091353 AAA
TAFALB
TAF AMD
KALB 091353Z 0914/1012 17005KT 6SM -SN BR OVC035
      TEMPO 0914/0916 2SM -SN OVC010
     FM091600 VRB03KT P6SM BKN025 OVC050
     FM092200 VRB03KT P6SM SCT025 OVC050
     FM100300 VRB03KT P6SM BKN025 OVC050=

USA.gov is the U.S. government's official web portal to all federal, state and local government web resources and services.